Home > Products > Valid Products > TAF

000
FTUS45 KFGZ 240500 RRA
TAFINW
TAF
KINW 240544Z 2406/2506 26008KT P6SM FEW250
     FM241000 VRB06KT P6SM FEW250
     FM242000 25010G18KT P6SM SCT250
     FM250200 VRB04KT P6SM FEW250=



000
FTUS45 KFGZ 240500 RRA
TAFPGA
TAF
KPGA 240544Z 2406/2506 VRB06KT P6SM FEW250=



000
FTUS45 KFGZ 240500 RRA
TAFFLG
TAF
KFLG 240544Z 2406/2506 VRB04KT P6SM FEW250
     FM241800 21010G18KT P6SM SCT250
     FM250200 VRB04KT P6SM FEW250=



000
FTUS45 KFGZ 232300
TAFINW
TAF
KINW 232336Z 2400/2424 31011G17KT P6SM FEW240
     FM240200 26008KT P6SM FEW250
     FM241000 13006KT P6SM FEW250
     FM242000 25010G18KT P6SM FEW250=



000
FTUS45 KFGZ 232300
TAFFLG
TAF
KFLG 232336Z 2400/2424 28013G19KT P6SM FEW250
     FM240200 VRB04KT P6SM FEW250
     FM241800 21010G18KT P6SM FEW250=



000
FTUS45 KFGZ 232300
TAFPGA
TAF
KPGA 232336Z 2400/2424 34009KT P6SM FEW250
     FM240200 VRB05KT P6SM FEW250=



000
FTUS45 KFGZ 232200 AAA
TAFINW
TAF AMD
KINW 232229Z 2322/2418 31018G28KT P6SM FEW140 SCT250
     FM240200 26008KT P6SM SCT250
     FM241000 VRB05KT P6SM FEW250=



000
FTUS45 KFGZ 231700
TAFPGA
TAF
KPGA 231723Z 2318/2418 32008G15KT P6SM FEW150 BKN250
     FM240200 VRB05KT P6SM SCT250=



000
FTUS45 KFGZ 231700
TAFINW
TAF
KINW 231723Z 2318/2418 28018G28KT P6SM FEW140 SCT250
     FM240200 26008KT P6SM SCT250
     FM241000 VRB05KT P6SM FEW250=



000
FTUS45 KFGZ 231700
TAFFLG
TAF
KFLG 231723Z 2318/2418 26014G24KT P6SM SCT100 BKN250
     FM240200 VRB03KT P6SM SCT250
     FM241600 18010KT P6SM FEW250=



000
FTUS45 KFGZ 231100
TAFPGA
TAF
KPGA 231124Z 2312/2412 28007KT P6SM BKN250
     FM231800 35008KT P6SM FEW150 SCT250
     FM240200 VRB05KT P6SM SCT250=



000
FTUS45 KFGZ 231100
TAFFLG
TAF
KFLG 231124Z 2312/2412 25011KT P6SM BKN250
     FM231800 24014G23KT P6SM SCT100 SCT250
     FM240200 VRB03KT P6SM SCT250=



000
FTUS45 KFGZ 231100
TAFINW
TAF
KINW 231124Z 2312/2412 VRB06KT P6SM BKN250
     FM231800 26016G25KT P6SM FEW140 SCT250
     FM240200 26006KT P6SM SCT250=



000
FTUS45 KFGZ 231100 AAB
TAFFLG
TAF AMD
KFLG 231108Z 2311/2406 25011KT P6SM BKN250
     FM231800 24014G23KT P6SM SCT100 SCT250
     FM240200 VRB03KT P6SM SCT250=



000
FTUS45 KFGZ 231000 AAA
TAFPGA
TAF AMD
KPGA 231000Z 2310/2406 25010G18KT P6SM BKN250
     FM231800 35008KT P6SM FEW150 SCT250
     FM240200 VRB05KT P6SM SCT250=



000
FTUS45 KFGZ 230900 AAA
TAFFLG
TAF AMD
KFLG 230916Z 2309/2406 25012G22KT P6SM FEW250
     FM231800 24014G23KT P6SM SCT100 SCT250
     FM240200 VRB03KT P6SM SCT250=



000
FTUS45 KFGZ 230500
TAFPGA
TAF
KPGA 230538Z 2306/2406 22010G18KT P6SM FEW250
     FM230800 VRB06KT P6SM FEW250
     FM231800 35008KT P6SM FEW150 SCT250
     FM240200 VRB05KT P6SM SCT250=



000
FTUS45 KFGZ 230500
TAFINW
TAF
KINW 230538Z 2306/2406 VRB06KT P6SM SCT250
      TEMPO 2306/2308 19011G16KT
     FM231800 26016G25KT P6SM FEW140 SCT250
     FM240200 26006KT P6SM SCT250=



000
FTUS45 KFGZ 230500
TAFFLG
TAF
KFLG 230538Z 2306/2406 23009KT P6SM FEW250
      TEMPO 2306/2308 23011G16KT
     FM231800 24014G23KT P6SM SCT100 SCT250
     FM240200 VRB03KT P6SM SCT250=



000
FTUS45 KFGZ 230400 AAA
TAFPGA
TAF AMD
KPGA 230422Z 2304/2324 22014G25KT P6SM SCT250
     FM230800 VRB06KT P6SM SCT250
     FM231800 01005KT P6SM FEW150 SCT250=



000
FTUS45 KFGZ 230400 AAA
TAFINW
TAF AMD
KINW 230422Z 2304/2324 20010KT P6SM SCT250
     FM231900 27011G22KT P6SM FEW140 SCT250=



000
FTUS45 KFGZ 222300
TAFFLG
TAF
KFLG 222332Z 2300/2324 21025G40KT P6SM OVC250
     FM230200 22015G22KT P6SM SCT250
     FM230700 22010KT P6SM FEW250
     FM231800 23010G20KT P6SM FEW120 SCT250=



000
FTUS45 KFGZ 222300
TAFINW
TAF
KINW 222332Z 2300/2324 20026G38KT P6SM BKN250
     FM230200 21016G27KT P6SM BKN250
     FM230700 20010KT P6SM FEW250
     FM231900 27011G22KT P6SM FEW140 SCT250=



000
FTUS45 KFGZ 222300
TAFPGA
TAF
KPGA 222332Z 2300/2324 21011G22KT P6SM OVC250
     FM230200 22014G21KT P6SM SCT250
     FM230800 VRB06KT P6SM SCT250
     FM231800 01005KT P6SM FEW150 SCT250=



000
FTUS45 KFGZ 221700
TAFFLG
TAF
KFLG 221727Z 2218/2318 21024G34KT P6SM OVC250
     FM222100 21026G40KT P6SM OVC250
     FM230200 22015G22KT P6SM SCT250
     FM230700 22010KT P6SM FEW250=



000
FTUS45 KFGZ 221700
TAFPGA
TAF
KPGA 221727Z 2218/2318 VRB05KT P6SM OVC250
     FM222000 20010G20KT P6SM OVC250
     FM222200 22015G25KT P6SM OVC250
     FM230200 22014G21KT P6SM SCT250
     FM230800 VRB06KT P6SM SCT250=



000
FTUS45 KFGZ 221700
TAFINW
TAF
KINW 221727Z 2218/2318 21020G30KT P6SM SCT250
     FM222000 21029G45KT P6SM BKN250
     FM230200 21016G27KT P6SM BKN250
     FM230700 20010KT P6SM FEW250=



000
FTUS45 KFGZ 221700 AAB
TAFINW
TAF AMD
KINW 221706Z 2217/2312 21010G20KT P6SM SCT250
     FM221800 21020G30KT P6SM BKN250
     FM222000 21029G45KT P6SM SCT250
     FM230200 21016G27KT P6SM FEW250
     FM230700 20010KT P6SM FEW250=



000
FTUS45 KFGZ 221600 AAB
TAFFLG
TAF AMD
KFLG 221644Z 2217/2312 21010G20KT P6SM BKN250
     FM221800 21024G34KT P6SM BKN250
     FM222100 21026G40KT P6SM BKN250
     FM230200 22015G22KT P6SM SCT250
     FM230700 22010KT P6SM FEW250=



000
FTUS45 KFGZ 221500 AAA
TAFINW
TAF AMD
KINW 221503Z 2215/2312 12007KT P6SM FEW250
     FM221600 24010G20KT P6SM FEW250
     FM221800 21020G30KT P6SM BKN250
     FM222000 21029G45KT P6SM SCT250
     FM230200 21016G27KT P6SM FEW250
     FM230700 20010KT P6SM FEW250=



000
FTUS45 KFGZ 221500 AAA
TAFFLG
TAF AMD
KFLG 221501Z 2215/2312 22011KT P6SM SCT250
     FM221600 24013G26KT P6SM SCT250
     FM221800 21024G34KT P6SM BKN250
     FM222100 21026G40KT P6SM BKN250
     FM230200 22015G22KT P6SM SCT250
     FM230700 22010KT P6SM FEW250=



000
FTUS45 KFGZ 221100
TAFINW
TAF
KINW 221121Z 2212/2312 VRB06KT P6SM FEW250
     FM221500 24010G20KT P6SM FEW250
     FM221800 21020G30KT P6SM BKN250
     FM222000 21029G45KT P6SM SCT250
     FM230200 21016G27KT P6SM FEW250
     FM230700 20010KT P6SM FEW250=



000
FTUS45 KFGZ 221100
TAFFLG
TAF
KFLG 221121Z 2212/2312 VRB03KT P6SM SCT250
     FM221500 24013G26KT P6SM SCT250
     FM221800 21024G34KT P6SM BKN250
     FM222100 21026G40KT P6SM BKN250
     FM230200 22015G22KT P6SM SCT250
     FM230700 22010KT P6SM FEW250=



000
FTUS45 KFGZ 221100
TAFPGA
TAF
KPGA 221121Z 2212/2312 17006KT P6SM SCT250
     FM221800 20012G22KT P6SM BKN250
     FM222100 22015G25KT P6SM BKN250
     FM230200 22014G21KT P6SM BKN250
     FM230800 VRB06KT P6SM FEW250=



000
FTUS45 KFGZ 220500
TAFFLG
TAF
KFLG 220539Z 2206/2306 VRB03KT P6SM FEW090 SCT250
     FM221500 24013G26KT P6SM SCT250
     FM221800 21024G36KT P6SM BKN250
     FM230200 22015G22KT P6SM FEW250=



000
FTUS45 KFGZ 220500
TAFINW
TAF
KINW 220539Z 2206/2306 VRB06KT P6SM FEW250
     FM221500 24010G20KT P6SM FEW250
     FM221800 21023G40KT P6SM BKN250
     FM230200 21016G27KT P6SM FEW250=



000
FTUS45 KFGZ 220500
TAFPGA
TAF
KPGA 220539Z 2206/2306 VRB06KT P6SM SCT100 SCT250
     FM221800 22015G25KT P6SM BKN250
     FM230200 22014G21KT P6SM FEW250=



000
FTUS45 KFGZ 212300
TAFFLG
TAF
KFLG 212324Z 2200/2224 22009G16KT P6SM BKN090
     FM220200 VRB03KT P6SM FEW090 FEW250
     FM221500 24013G26KT P6SM SCT250
     FM221800 21021G36KT P6SM SCT250=



000
FTUS45 KFGZ 212300
TAFINW
TAF
KINW 212324Z 2200/2224 19009KT P6SM SCT110
     FM220300 VRB05KT P6SM SKC
     FM221500 24010G20KT P6SM FEW250
     FM221800 21023G40KT P6SM SCT250=



000
FTUS45 KFGZ 212300
TAFPGA
TAF
KPGA 212324Z 2200/2224 VRB06KT P6SM SCT100
     FM221800 22015G25KT P6SM SCT250=



000
FTUS45 KFGZ 212200 AAA
TAFFLG
TAF AMD
KFLG 212205Z 2122/2218 22009G16KT P6SM BKN090
     FM220200 VRB03KT P6SM FEW090 FEW250
     FM221500 24013G26KT P6SM SCT050=



000
FTUS45 KFGZ 211700
TAFINW
TAF
KINW 211720Z 2118/2218 VRB06KT P6SM FEW110
     FM212200 22009G16KT P6SM SCT110
     FM220300 VRB05KT P6SM SKC
     FM221500 24012G25KT P6SM FEW070=



000
FTUS45 KFGZ 211700
TAFPGA
TAF
KPGA 211720Z 2118/2218 VRB06KT P6SM SCT100=



000
FTUS45 KFGZ 211700
TAFFLG
TAF
KFLG 211720Z 2118/2218 VRB05KT P6SM FEW080
     FM211900 20009G16KT P6SM BKN080
     FM220200 VRB03KT P6SM FEW080 FEW250
     FM221500 24013G26KT P6SM SCT050=



000
FTUS45 KFGZ 211100
TAFPGA
TAF
KPGA 211128Z 2112/2212 VRB05KT P6SM SCT110=



000
FTUS45 KFGZ 211100
TAFFLG
TAF
KFLG 211128Z 2112/2212 VRB05KT P6SM FEW080
     FM211900 20009G16KT P6SM BKN080
     FM220200 VRB03KT P6SM FEW080 FEW250=



000
FTUS45 KFGZ 211100
TAFINW
TAF
KINW 211128Z 2112/2212 VRB06KT P6SM SCT120
     FM212200 22009G16KT P6SM SCT110
     FM220300 VRB05KT P6SM SKC=



    US Dept of Commerce
    National Oceanic and Atmospheric Administration
    National Weather Service
    1325 East West Highway
    Silver Spring, MD 20910
    Page Author: NWS Internet Services Team
Disclaimer
Information Quality
Credits
Glossary
Privacy Policy
Freedom of Information Act (FOIA)
About Us
Career Opportunities